North Conway, New Hampshire
Current Conditions -  °F | °C
As of 2:54 PM on Thursday 18 Dec 2014 (Local Time) from KIZG Reporting Station
Broken Clouds Broken Clouds  
Wind Chill: 29°   Ceiling: 5000
Heat Index: 37°   Visibility: 10mi
Dew Point: 26°   Wind: 13mph
Humidity: 65%   Direction: 280°W
Pressure: 29.69"   Gusts: 20mph
Location:  44.05°N, 71.13°W
Report Text: KIZG 181954Z AUTO 28011G17KT 10SM SCT043 BKN050 BKN085 03/M03 A2969 RMK AO2 SLP060 T00281033
Loading
Personal Weather Stations






























Interactive Weather Map New forecast layout! Learn more

10-Day Weather Forecast

Advertisements
Track Severe Weather on mobile